sensor_id;sensor_type;location;lat;lon;timestamp;temperature;humidity
42147;DHT22;27815;43.410;11.852;2023-08-21T00:03:09;27.00;48.30
42147;DHT22;27815;43.410;11.852;2023-08-21T00:07:12;27.00;48.50
42147;DHT22;27815;43.410;11.852;2023-08-21T00:11:16;27.00;48.50
42147;DHT22;27815;43.410;11.852;2023-08-21T00:15:19;27.00;48.60
42147;DHT22;27815;43.410;11.852;2023-08-21T00:19:21;27.00;48.70
42147;DHT22;27815;43.410;11.852;2023-08-21T00:23:24;27.00;48.80
42147;DHT22;27815;43.410;11.852;2023-08-21T00:27:27;26.90;48.90
42147;DHT22;27815;43.410;11.852;2023-08-21T00:31:30;26.90;49.00
42147;DHT22;27815;43.410;11.852;2023-08-21T00:35:33;26.90;49.10
42147;DHT22;27815;43.410;11.852;2023-08-21T00:39:36;26.90;49.20
42147;DHT22;27815;43.410;11.852;2023-08-21T00:43:39;26.80;49.30
42147;DHT22;27815;43.410;11.852;2023-08-21T00:47:42;26.90;49.30
42147;DHT22;27815;43.410;11.852;2023-08-21T00:51:46;26.80;49.40
42147;DHT22;27815;43.410;11.852;2023-08-21T00:55:49;26.80;49.40
42147;DHT22;27815;43.410;11.852;2023-08-21T00:59:53;26.80;49.40
42147;DHT22;27815;43.410;11.852;2023-08-21T01:03:56;26.80;49.40
42147;DHT22;27815;43.410;11.852;2023-08-21T01:08:03;26.80;49.40
42147;DHT22;27815;43.410;11.852;2023-08-21T01:12:29;26.80;49.40
42147;DHT22;27815;43.410;11.852;2023-08-21T01:16:37;26.80;49.50
42147;DHT22;27815;43.410;11.852;2023-08-21T01:20:41;26.80;49.40
42147;DHT22;27815;43.410;11.852;2023-08-21T01:24:47;26.90;49.40
42147;DHT22;27815;43.410;11.852;2023-08-21T01:28:52;26.80;49.00
42147;DHT22;27815;43.410;11.852;2023-08-21T01:33:12;26.80;49.30
42147;DHT22;27815;43.410;11.852;2023-08-21T01:37:18;26.90;49.20
42147;DHT22;27815;43.410;11.852;2023-08-21T01:41:24;26.90;49.20
42147;DHT22;27815;43.410;11.852;2023-08-21T01:45:29;27.00;49.10
42147;DHT22;27815;43.410;11.852;2023-08-21T01:49:32;27.00;49.00
42147;DHT22;27815;43.410;11.852;2023-08-21T01:53:35;27.10;48.90
42147;DHT22;27815;43.410;11.852;2023-08-21T01:57:38;27.00;48.90
42147;DHT22;27815;43.410;11.852;2023-08-21T02:01:41;27.10;48.80
42147;DHT22;27815;43.410;11.852;2023-08-21T02:05:44;27.10;48.80
42147;DHT22;27815;43.410;11.852;2023-08-21T02:09:47;27.10;48.80
42147;DHT22;27815;43.410;11.852;2023-08-21T02:13:50;27.10;48.80
42147;DHT22;27815;43.410;11.852;2023-08-21T02:17:53;27.00;48.90
42147;DHT22;27815;43.410;11.852;2023-08-21T02:21:57;27.00;49.10
42147;DHT22;27815;43.410;11.852;2023-08-21T02:26:00;26.90;49.20
42147;DHT22;27815;43.410;11.852;2023-08-21T02:30:04;26.90;49.30
42147;DHT22;27815;43.410;11.852;2023-08-21T02:34:08;26.80;49.30
42147;DHT22;27815;43.410;11.852;2023-08-21T02:38:11;26.80;49.40
42147;DHT22;27815;43.410;11.852;2023-08-21T02:42:14;26.80;49.40
42147;DHT22;27815;43.410;11.852;2023-08-21T02:46:17;26.80;49.50
42147;DHT22;27815;43.410;11.852;2023-08-21T02:50:20;26.80;49.60
42147;DHT22;27815;43.410;11.852;2023-08-21T02:54:23;26.70;49.70
42147;DHT22;27815;43.410;11.852;2023-08-21T02:58:26;26.70;49.80
42147;DHT22;27815;43.410;11.852;2023-08-21T03:02:29;26.60;50.00
42147;DHT22;27815;43.410;11.852;2023-08-21T03:06:33;26.60;50.10
42147;DHT22;27815;43.410;11.852;2023-08-21T03:10:36;26.50;50.20
42147;DHT22;27815;43.410;11.852;2023-08-21T03:14:39;26.50;50.40
42147;DHT22;27815;43.410;11.852;2023-08-21T03:19:00;26.40;50.50
42147;DHT22;27815;43.410;11.852;2023-08-21T03:23:05;26.40;50.60
42147;DHT22;27815;43.410;11.852;2023-08-21T03:27:08;26.40;50.90
42147;DHT22;27815;43.410;11.852;2023-08-21T03:31:11;26.40;51.10
42147;DHT22;27815;43.410;11.852;2023-08-21T03:35:14;26.40;51.20
42147;DHT22;27815;43.410;11.852;2023-08-21T03:39:17;26.40;51.40
42147;DHT22;27815;43.410;11.852;2023-08-21T03:43:22;26.40;51.50
42147;DHT22;27815;43.410;11.852;2023-08-21T03:47:25;26.40;51.50
42147;DHT22;27815;43.410;11.852;2023-08-21T03:51:33;26.40;51.70
42147;DHT22;27815;43.410;11.852;2023-08-21T03:55:36;26.50;51.80
42147;DHT22;27815;43.410;11.852;2023-08-21T03:59:39;26.50;51.80
42147;DHT22;27815;43.410;11.852;2023-08-21T04:03:42;26.50;51.80
42147;DHT22;27815;43.410;11.852;2023-08-21T04:07:46;26.50;52.00
42147;DHT22;27815;43.410;11.852;2023-08-21T04:11:49;26.60;52.00
42147;DHT22;27815;43.410;11.852;2023-08-21T04:15:54;26.60;52.20
42147;DHT22;27815;43.410;11.852;2023-08-21T04:19:59;26.70;52.50
42147;DHT22;27815;43.410;11.852;2023-08-21T04:24:02;26.80;52.50
42147;DHT22;27815;43.410;11.852;2023-08-21T04:28:05;26.80;52.70
42147;DHT22;27815;43.410;11.852;2023-08-21T04:32:10;26.90;52.70
42147;DHT22;27815;43.410;11.852;2023-08-21T04:36:15;26.80;52.70
42147;DHT22;27815;43.410;11.852;2023-08-21T04:40:24;26.80;52.80
42147;DHT22;27815;43.410;11.852;2023-08-21T04:44:28;26.80;53.10
42147;DHT22;27815;43.410;11.852;2023-08-21T04:48:33;26.80;53.00
42147;DHT22;27815;43.410;11.852;2023-08-21T04:52:37;26.80;53.00
42147;DHT22;27815;43.410;11.852;2023-08-21T04:56:40;26.80;53.20
42147;DHT22;27815;43.410;11.852;2023-08-21T05:00:45;26.70;53.40
42147;DHT22;27815;43.410;11.852;2023-08-21T05:04:49;26.70;53.50
42147;DHT22;27815;43.410;11.852;2023-08-21T05:08:52;26.70;53.60
42147;DHT22;27815;43.410;11.852;2023-08-21T05:12:57;26.80;53.60
42147;DHT22;27815;43.410;11.852;2023-08-21T05:17:00;26.80;53.60
42147;DHT22;27815;43.410;11.852;2023-08-21T05:21:03;26.80;53.70
42147;DHT22;27815;43.410;11.852;2023-08-21T05:25:07;26.80;53.70
42147;DHT22;27815;43.410;11.852;2023-08-21T05:29:10;26.80;53.90
42147;DHT22;27815;43.410;11.852;2023-08-21T05:33:13;26.80;54.00
42147;DHT22;27815;43.410;11.852;2023-08-21T05:37:17;26.80;54.00
42147;DHT22;27815;43.410;11.852;2023-08-21T05:41:20;26.80;54.20
42147;DHT22;27815;43.410;11.852;2023-08-21T05:45:23;26.90;54.20
42147;DHT22;27815;43.410;11.852;2023-08-21T05:49:26;26.90;54.40
42147;DHT22;27815;43.410;11.852;2023-08-21T05:53:29;27.00;54.20
42147;DHT22;27815;43.410;11.852;2023-08-21T05:57:31;27.10;54.20
42147;DHT22;27815;43.410;11.852;2023-08-21T06:01:35;27.30;54.10
42147;DHT22;27815;43.410;11.852;2023-08-21T06:05:39;27.50;54.00
42147;DHT22;27815;43.410;11.852;2023-08-21T06:09:41;27.60;53.80
42147;DHT22;27815;43.410;11.852;2023-08-21T06:13:44;27.80;53.70
42147;DHT22;27815;43.410;11.852;2023-08-21T06:17:48;28.00;53.50
42147;DHT22;27815;43.410;11.852;2023-08-21T06:21:51;28.10;53.40
42147;DHT22;27815;43.410;11.852;2023-08-21T06:25:54;28.20;53.20
42147;DHT22;27815;43.410;11.852;2023-08-21T06:29:58;28.50;53.00
42147;DHT22;27815;43.410;11.852;2023-08-21T06:34:01;28.60;52.90
42147;DHT22;27815;43.410;11.852;2023-08-21T06:38:04;28.80;52.70
42147;DHT22;27815;43.410;11.852;2023-08-21T06:42:08;29.00;52.50
42147;DHT22;27815;43.410;11.852;2023-08-21T06:46:16;29.20;52.10
42147;DHT22;27815;43.410;11.852;2023-08-21T06:50:19;29.40;51.90
42147;DHT22;27815;43.410;11.852;2023-08-21T06:54:22;29.60;51.70
42147;DHT22;27815;43.410;11.852;2023-08-21T06:58:25;29.80;51.40
42147;DHT22;27815;43.410;11.852;2023-08-21T07:02:27;30.00;50.70
42147;DHT22;27815;43.410;11.852;2023-08-21T07:06:31;30.20;50.60
42147;DHT22;27815;43.410;11.852;2023-08-21T07:10:37;30.50;50.10
42147;DHT22;27815;43.410;11.852;2023-08-21T07:14:40;30.50;49.70
42147;DHT22;27815;43.410;11.852;2023-08-21T07:18:43;30.50;49.60
42147;DHT22;27815;43.410;11.852;2023-08-21T07:22:46;30.50;49.30
42147;DHT22;27815;43.410;11.852;2023-08-21T07:26:48;30.60;49.10
42147;DHT22;27815;43.410;11.852;2023-08-21T07:30:58;30.80;48.80
42147;DHT22;27815;43.410;11.852;2023-08-21T07:35:01;31.00;48.60
42147;DHT22;27815;43.410;11.852;2023-08-21T07:39:04;31.30;48.30
42147;DHT22;27815;43.410;11.852;2023-08-21T07:43:06;31.40;47.70
42147;DHT22;27815;43.410;11.852;2023-08-21T07:47:09;31.40;47.50
42147;DHT22;27815;43.410;11.852;2023-08-21T07:51:12;31.50;47.20
42147;DHT22;27815;43.410;11.852;2023-08-21T07:55:15;31.70;46.90
42147;DHT22;27815;43.410;11.852;2023-08-21T07:59:18;31.90;46.20
42147;DHT22;27815;43.410;11.852;2023-08-21T08:03:22;31.90;45.90
42147;DHT22;27815;43.410;11.852;2023-08-21T08:07:25;32.00;45.70
42147;DHT22;27815;43.410;11.852;2023-08-21T08:11:28;32.20;45.10
42147;DHT22;27815;43.410;11.852;2023-08-21T08:15:31;32.20;44.90
42147;DHT22;27815;43.410;11.852;2023-08-21T08:19:34;32.20;44.60
42147;DHT22;27815;43.410;11.852;2023-08-21T08:23:37;32.20;44.50
42147;DHT22;27815;43.410;11.852;2023-08-21T08:27:40;32.30;44.30
42147;DHT22;27815;43.410;11.852;2023-08-21T08:31:43;32.40;44.00
42147;DHT22;27815;43.410;11.852;2023-08-21T08:35:46;32.50;43.90
42147;DHT22;27815;43.410;11.852;2023-08-21T08:39:49;32.60;43.50
42147;DHT22;27815;43.410;11.852;2023-08-21T08:43:54;32.80;43.50
42147;DHT22;27815;43.410;11.852;2023-08-21T08:48:03;33.10;43.30
42147;DHT22;27815;43.410;11.852;2023-08-21T08:52:06;33.30;42.70
42147;DHT22;27815;43.410;11.852;2023-08-21T08:56:10;33.40;42.40
42147;DHT22;27815;43.410;11.852;2023-08-21T09:00:13;33.40;42.20
42147;DHT22;27815;43.410;11.852;2023-08-21T09:04:16;33.50;42.00
42147;DHT22;27815;43.410;11.852;2023-08-21T09:08:20;33.50;41.70
42147;DHT22;27815;43.410;11.852;2023-08-21T09:12:23;33.70;41.60
42147;DHT22;27815;43.410;11.852;2023-08-21T09:16:26;33.60;41.30
42147;DHT22;27815;43.410;11.852;2023-08-21T09:20:35;33.60;41.00
42147;DHT22;27815;43.410;11.852;2023-08-21T09:24:40;33.80;40.90
42147;DHT22;27815;43.410;11.852;2023-08-21T09:28:43;34.00;41.00
42147;DHT22;27815;43.410;11.852;2023-08-21T09:32:58;34.00;40.90
42147;DHT22;27815;43.410;11.852;2023-08-21T09:37:08;34.20;40.60
42147;DHT22;27815;43.410;11.852;2023-08-21T09:41:12;34.50;40.50
42147;DHT22;27815;43.410;11.852;2023-08-21T09:45:20;34.70;39.70
42147;DHT22;27815;43.410;11.852;2023-08-21T09:49:23;34.70;39.80
42147;DHT22;27815;43.410;11.852;2023-08-21T09:53:26;34.70;39.50
42147;DHT22;27815;43.410;11.852;2023-08-21T09:57:51;34.70;39.40
42147;DHT22;27815;43.410;11.852;2023-08-21T10:02:04;34.70;39.50
42147;DHT22;27815;43.410;11.852;2023-08-21T10:06:11;34.80;39.30
42147;DHT22;27815;43.410;11.852;2023-08-21T10:10:16;34.70;38.90
42147;DHT22;27815;43.410;11.852;2023-08-21T10:14:23;34.70;38.90
42147;DHT22;27815;43.410;11.852;2023-08-21T10:18:32;34.70;38.50
42147;DHT22;27815;43.410;11.852;2023-08-21T10:22:49;34.90;38.20
42147;DHT22;27815;43.410;11.852;2023-08-21T10:26:58;35.20;38.30
42147;DHT22;27815;43.410;11.852;2023-08-21T10:35:31;35.40;38.00
42147;DHT22;27815;43.410;11.852;2023-08-21T10:39:34;35.60;37.90
42147;DHT22;27815;43.410;11.852;2023-08-21T10:43:45;35.70;37.70
42147;DHT22;27815;43.410;11.852;2023-08-21T10:47:48;35.60;37.30
42147;DHT22;27815;43.410;11.852;2023-08-21T10:51:53;35.40;37.50
42147;DHT22;27815;43.410;11.852;2023-08-21T10:55:56;35.60;37.70
42147;DHT22;27815;43.410;11.852;2023-08-21T11:00:02;35.80;37.30
42147;DHT22;27815;43.410;11.852;2023-08-21T11:04:08;35.80;37.10
42147;DHT22;27815;43.410;11.852;2023-08-21T11:08:11;35.90;37.10
42147;DHT22;27815;43.410;11.852;2023-08-21T11:12:16;36.00;37.10
42147;DHT22;27815;43.410;11.852;2023-08-21T11:16:19;36.00;37.00
42147;DHT22;27815;43.410;11.852;2023-08-21T11:20:27;36.00;37.30
42147;DHT22;27815;43.410;11.852;2023-08-21T11:24:47;36.20;37.20
42147;DHT22;27815;43.410;11.852;2023-08-21T11:28:51;36.40;36.90
42147;DHT22;27815;43.410;11.852;2023-08-21T11:33:09;36.40;36.80
42147;DHT22;27815;43.410;11.852;2023-08-21T11:37:12;36.50;36.50
42147;DHT22;27815;43.410;11.852;2023-08-21T11:41:15;36.50;36.70
42147;DHT22;27815;43.410;11.852;2023-08-21T11:45:20;36.60;36.40
42147;DHT22;27815;43.410;11.852;2023-08-21T11:49:24;36.60;36.30
42147;DHT22;27815;43.410;11.852;2023-08-21T11:53:47;36.80;35.80
42147;DHT22;27815;43.410;11.852;2023-08-21T11:57:52;36.80;35.80
42147;DHT22;27815;43.410;11.852;2023-08-21T12:01:55;36.90;35.30
42147;DHT22;27815;43.410;11.852;2023-08-21T12:05:59;36.90;35.00
42147;DHT22;27815;43.410;11.852;2023-08-21T12:10:02;36.70;35.10
42147;DHT22;27815;43.410;11.852;2023-08-21T12:14:06;36.70;35.10
42147;DHT22;27815;43.410;11.852;2023-08-21T12:18:09;36.60;35.10
42147;DHT22;27815;43.410;11.852;2023-08-21T12:22:12;36.80;34.90
42147;DHT22;27815;43.410;11.852;2023-08-21T12:26:15;36.80;34.90
42147;DHT22;27815;43.410;11.852;2023-08-21T12:30:25;36.80;34.70
42147;DHT22;27815;43.410;11.852;2023-08-21T12:34:28;36.90;34.60
42147;DHT22;27815;43.410;11.852;2023-08-21T12:38:31;37.00;34.40
42147;DHT22;27815;43.410;11.852;2023-08-21T12:42:35;36.90;34.10
42147;DHT22;27815;43.410;11.852;2023-08-21T12:46:38;37.00;34.10
42147;DHT22;27815;43.410;11.852;2023-08-21T12:50:41;37.10;33.80
42147;DHT22;27815;43.410;11.852;2023-08-21T12:54:44;37.10;33.60
42147;DHT22;27815;43.410;11.852;2023-08-21T12:58:48;37.30;33.10
42147;DHT22;27815;43.410;11.852;2023-08-21T13:02:51;37.20;32.70
42147;DHT22;27815;43.410;11.852;2023-08-21T13:06:54;37.10;32.70
42147;DHT22;27815;43.410;11.852;2023-08-21T13:10:57;37.20;32.90
42147;DHT22;27815;43.410;11.852;2023-08-21T13:15:00;37.30;32.70
42147;DHT22;27815;43.410;11.852;2023-08-21T13:19:04;37.20;32.10
42147;DHT22;27815;43.410;11.852;2023-08-21T13:23:06;37.00;32.50
42147;DHT22;27815;43.410;11.852;2023-08-21T13:27:09;37.10;32.60
42147;DHT22;27815;43.410;11.852;2023-08-21T13:31:12;37.30;32.60
42147;DHT22;27815;43.410;11.852;2023-08-21T13:35:15;37.50;32.60
42147;DHT22;27815;43.410;11.852;2023-08-21T13:39:19;37.50;32.20
42147;DHT22;27815;43.410;11.852;2023-08-21T13:43:22;37.60;32.30
42147;DHT22;27815;43.410;11.852;2023-08-21T13:47:30;37.70;32.20
42147;DHT22;27815;43.410;11.852;2023-08-21T13:51:34;37.80;32.10
42147;DHT22;27815;43.410;11.852;2023-08-21T13:55:36;37.60;32.10
42147;DHT22;27815;43.410;11.852;2023-08-21T13:59:40;37.70;32.30
42147;DHT22;27815;43.410;11.852;2023-08-21T14:03:43;37.80;32.20
42147;DHT22;27815;43.410;11.852;2023-08-21T14:07:46;37.80;32.00
42147;DHT22;27815;43.410;11.852;2023-08-21T14:11:50;37.90;32.10
42147;DHT22;27815;43.410;11.852;2023-08-21T14:15:53;37.90;31.90
42147;DHT22;27815;43.410;11.852;2023-08-21T14:19:56;37.90;32.00
42147;DHT22;27815;43.410;11.852;2023-08-21T14:23:59;38.00;31.50
42147;DHT22;27815;43.410;11.852;2023-08-21T14:28:02;37.90;31.00
42147;DHT22;27815;43.410;11.852;2023-08-21T14:32:05;37.90;30.60
42147;DHT22;27815;43.410;11.852;2023-08-21T14:36:08;37.90;30.80
42147;DHT22;27815;43.410;11.852;2023-08-21T14:40:11;37.90;31.00
42147;DHT22;27815;43.410;11.852;2023-08-21T14:44:14;37.90;31.10
42147;DHT22;27815;43.410;11.852;2023-08-21T14:48:18;37.90;31.20
42147;DHT22;27815;43.410;11.852;2023-08-21T14:52:21;37.90;31.30
42147;DHT22;27815;43.410;11.852;2023-08-21T14:56:23;37.90;31.50
42147;DHT22;27815;43.410;11.852;2023-08-21T15:00:26;38.00;31.60
42147;DHT22;27815;43.410;11.852;2023-08-21T15:04:30;38.00;31.80
42147;DHT22;27815;43.410;11.852;2023-08-21T15:08:33;38.00;31.70
42147;DHT22;27815;43.410;11.852;2023-08-21T15:12:36;38.00;31.90
42147;DHT22;27815;43.410;11.852;2023-08-21T15:16:40;38.00;32.00
42147;DHT22;27815;43.410;11.852;2023-08-21T15:20:43;38.00;31.90
42147;DHT22;27815;43.410;11.852;2023-08-21T15:24:46;38.00;31.80
42147;DHT22;27815;43.410;11.852;2023-08-21T15:28:49;38.00;31.80
42147;DHT22;27815;43.410;11.852;2023-08-21T15:32:54;38.00;31.80
42147;DHT22;27815;43.410;11.852;2023-08-21T15:36:58;38.00;31.80
42147;DHT22;27815;43.410;11.852;2023-08-21T15:41:01;38.10;31.80
42147;DHT22;27815;43.410;11.852;2023-08-21T15:45:05;38.10;31.70
42147;DHT22;27815;43.410;11.852;2023-08-21T15:49:09;38.20;31.70
42147;DHT22;27815;43.410;11.852;2023-08-21T15:53:12;38.10;31.70
42147;DHT22;27815;43.410;11.852;2023-08-21T15:57:17;38.00;31.60
42147;DHT22;27815;43.410;11.852;2023-08-21T16:01:20;38.00;31.80
42147;DHT22;27815;43.410;11.852;2023-08-21T16:05:23;37.90;31.70
42147;DHT22;27815;43.410;11.852;2023-08-21T16:09:26;37.90;31.70
42147;DHT22;27815;43.410;11.852;2023-08-21T16:13:29;38.20;31.50
42147;DHT22;27815;43.410;11.852;2023-08-21T16:17:33;38.20;31.40
42147;DHT22;27815;43.410;11.852;2023-08-21T16:21:36;38.40;31.10
42147;DHT22;27815;43.410;11.852;2023-08-21T16:25:40;38.90;30.60
42147;DHT22;27815;43.410;11.852;2023-08-21T16:29:43;39.20;30.40
42147;DHT22;27815;43.410;11.852;2023-08-21T16:33:46;39.80;29.90
42147;DHT22;27815;43.410;11.852;2023-08-21T16:37:49;40.00;29.70
42147;DHT22;27815;43.410;11.852;2023-08-21T16:41:52;40.10;29.80
42147;DHT22;27815;43.410;11.852;2023-08-21T16:45:55;39.80;29.80
42147;DHT22;27815;43.410;11.852;2023-08-21T16:49:58;39.90;29.70
42147;DHT22;27815;43.410;11.852;2023-08-21T16:54:08;39.80;29.60
42147;DHT22;27815;43.410;11.852;2023-08-21T16:58:11;39.50;29.90
42147;DHT22;27815;43.410;11.852;2023-08-21T17:02:13;38.90;30.60
42147;DHT22;27815;43.410;11.852;2023-08-21T17:06:17;38.20;31.30
42147;DHT22;27815;43.410;11.852;2023-08-21T17:10:20;37.70;31.90
42147;DHT22;27815;43.410;11.852;2023-08-21T17:14:23;37.20;32.50
42147;DHT22;27815;43.410;11.852;2023-08-21T17:18:26;36.90;33.10
42147;DHT22;27815;43.410;11.852;2023-08-21T17:22:29;36.90;33.40
42147;DHT22;27815;43.410;11.852;2023-08-21T17:26:32;37.30;33.20
42147;DHT22;27815;43.410;11.852;2023-08-21T17:30:35;37.50;33.20
42147;DHT22;27815;43.410;11.852;2023-08-21T17:34:38;37.70;33.20
42147;DHT22;27815;43.410;11.852;2023-08-21T17:38:41;37.80;33.30
42147;DHT22;27815;43.410;11.852;2023-08-21T17:42:44;37.60;33.40
42147;DHT22;27815;43.410;11.852;2023-08-21T17:46:47;36.90;34.20
42147;DHT22;27815;43.410;11.852;2023-08-21T17:50:50;36.20;34.90
42147;DHT22;27815;43.410;11.852;2023-08-21T17:54:53;35.80;35.50
42147;DHT22;27815;43.410;11.852;2023-08-21T17:58:56;35.40;36.00
42147;DHT22;27815;43.410;11.852;2023-08-21T18:02:59;34.90;36.50
42147;DHT22;27815;43.410;11.852;2023-08-21T18:07:02;34.50;36.90
42147;DHT22;27815;43.410;11.852;2023-08-21T18:11:05;34.20;37.30
42147;DHT22;27815;43.410;11.852;2023-08-21T18:15:10;33.90;37.80
42147;DHT22;27815;43.410;11.852;2023-08-21T18:19:13;33.60;38.10
42147;DHT22;27815;43.410;11.852;2023-08-21T18:23:17;33.40;38.70
42147;DHT22;27815;43.410;11.852;2023-08-21T18:27:21;33.10;39.10
42147;DHT22;27815;43.410;11.852;2023-08-21T18:31:24;32.90;39.70
42147;DHT22;27815;43.410;11.852;2023-08-21T18:35:29;32.60;39.90
42147;DHT22;27815;43.410;11.852;2023-08-21T18:39:32;32.40;40.10
42147;DHT22;27815;43.410;11.852;2023-08-21T18:43:35;32.20;40.40
42147;DHT22;27815;43.410;11.852;2023-08-21T18:47:38;32.10;40.60
42147;DHT22;27815;43.410;11.852;2023-08-21T18:51:42;31.90;40.90
42147;DHT22;27815;43.410;11.852;2023-08-21T18:55:46;31.80;40.80
42147;DHT22;27815;43.410;11.852;2023-08-21T18:59:49;31.70;40.90
42147;DHT22;27815;43.410;11.852;2023-08-21T19:03:53;31.60;40.90
42147;DHT22;27815;43.410;11.852;2023-08-21T19:07:56;31.50;41.00
42147;DHT22;27815;43.410;11.852;2023-08-21T19:12:02;31.50;40.90
42147;DHT22;27815;43.410;11.852;2023-08-21T19:16:05;31.50;40.70
42147;DHT22;27815;43.410;11.852;2023-08-21T19:20:11;31.40;40.90
42147;DHT22;27815;43.410;11.852;2023-08-21T19:24:14;31.30;40.70
42147;DHT22;27815;43.410;11.852;2023-08-21T19:28:18;31.20;40.60
42147;DHT22;27815;43.410;11.852;2023-08-21T19:32:21;31.20;40.40
42147;DHT22;27815;43.410;11.852;2023-08-21T19:36:24;31.20;40.40
42147;DHT22;27815;43.410;11.852;2023-08-21T19:40:27;31.10;40.20
42147;DHT22;27815;43.410;11.852;2023-08-21T19:44:31;31.10;40.20
42147;DHT22;27815;43.410;11.852;2023-08-21T19:48:34;31.10;40.20
42147;DHT22;27815;43.410;11.852;2023-08-21T19:52:37;31.00;40.20
42147;DHT22;27815;43.410;11.852;2023-08-21T19:56:41;31.00;40.10
42147;DHT22;27815;43.410;11.852;2023-08-21T20:00:44;30.90;40.00
42147;DHT22;27815;43.410;11.852;2023-08-21T20:04:47;30.90;40.00
42147;DHT22;27815;43.410;11.852;2023-08-21T20:08:51;30.90;39.90
42147;DHT22;27815;43.410;11.852;2023-08-21T20:12:55;30.80;39.80
42147;DHT22;27815;43.410;11.852;2023-08-21T20:17:07;30.80;39.70
42147;DHT22;27815;43.410;11.852;2023-08-21T20:21:13;30.80;39.50
42147;DHT22;27815;43.410;11.852;2023-08-21T20:25:21;30.80;39.40
42147;DHT22;27815;43.410;11.852;2023-08-21T20:29:27;30.80;39.30
42147;DHT22;27815;43.410;11.852;2023-08-21T20:33:35;30.70;39.20
42147;DHT22;27815;43.410;11.852;2023-08-21T20:37:41;30.70;39.20
42147;DHT22;27815;43.410;11.852;2023-08-21T20:41:45;30.70;39.20
42147;DHT22;27815;43.410;11.852;2023-08-21T20:45:48;30.60;39.30
42147;DHT22;27815;43.410;11.852;2023-08-21T20:49:52;30.60;39.40
42147;DHT22;27815;43.410;11.852;2023-08-21T20:53:55;30.50;39.40
42147;DHT22;27815;43.410;11.852;2023-08-21T20:57:58;30.50;39.20
42147;DHT22;27815;43.410;11.852;2023-08-21T21:02:01;30.50;39.20
42147;DHT22;27815;43.410;11.852;2023-08-21T21:06:05;30.50;39.20
42147;DHT22;27815;43.410;11.852;2023-08-21T21:10:09;30.50;39.30
42147;DHT22;27815;43.410;11.852;2023-08-21T21:14:12;30.40;39.60
42147;DHT22;27815;43.410;11.852;2023-08-21T21:18:14;30.00;40.40
42147;DHT22;27815;43.410;11.852;2023-08-21T21:22:18;29.80;40.80
42147;DHT22;27815;43.410;11.852;2023-08-21T21:26:21;29.50;41.20
42147;DHT22;27815;43.410;11.852;2023-08-21T21:30:24;29.40;41.50
42147;DHT22;27815;43.410;11.852;2023-08-21T21:34:30;29.20;41.80
42147;DHT22;27815;43.410;11.852;2023-08-21T21:38:33;29.00;41.80
42147;DHT22;27815;43.410;11.852;2023-08-21T21:42:37;28.70;42.10
42147;DHT22;27815;43.410;11.852;2023-08-21T21:46:40;28.50;42.40
42147;DHT22;27815;43.410;11.852;2023-08-21T21:50:43;28.20;42.80
42147;DHT22;27815;43.410;11.852;2023-08-21T21:54:46;28.00;42.90
42147;DHT22;27815;43.410;11.852;2023-08-21T21:58:49;27.90;43.10
42147;DHT22;27815;43.410;11.852;2023-08-21T22:02:52;27.80;43.20
42147;DHT22;27815;43.410;11.852;2023-08-21T22:06:55;27.70;43.40
42147;DHT22;27815;43.410;11.852;2023-08-21T22:11:02;27.60;43.60
42147;DHT22;27815;43.410;11.852;2023-08-21T22:15:07;27.50;43.80
42147;DHT22;27815;43.410;11.852;2023-08-21T22:19:11;27.40;44.00
42147;DHT22;27815;43.410;11.852;2023-08-21T22:23:13;27.20;44.00
42147;DHT22;27815;43.410;11.852;2023-08-21T22:27:16;27.20;43.90
42147;DHT22;27815;43.410;11.852;2023-08-21T22:31:20;27.20;44.00
42147;DHT22;27815;43.410;11.852;2023-08-21T22:35:37;27.20;44.10
42147;DHT22;27815;43.410;11.852;2023-08-21T22:39:41;27.10;44.40
42147;DHT22;27815;43.410;11.852;2023-08-21T22:43:44;27.00;44.50
42147;DHT22;27815;43.410;11.852;2023-08-21T22:47:47;26.90;44.60
42147;DHT22;27815;43.410;11.852;2023-08-21T22:51:51;26.80;45.10
42147;DHT22;27815;43.410;11.852;2023-08-21T22:55:54;26.50;45.50
42147;DHT22;27815;43.410;11.852;2023-08-21T22:59:57;26.40;45.60
42147;DHT22;27815;43.410;11.852;2023-08-21T23:04:00;26.40;45.60
42147;DHT22;27815;43.410;11.852;2023-08-21T23:08:03;26.30;45.70
42147;DHT22;27815;43.410;11.852;2023-08-21T23:12:07;26.30;45.60
42147;DHT22;27815;43.410;11.852;2023-08-21T23:16:14;26.30;45.70
42147;DHT22;27815;43.410;11.852;2023-08-21T23:20:17;26.20;45.80
42147;DHT22;27815;43.410;11.852;2023-08-21T23:24:20;26.20;45.80
42147;DHT22;27815;43.410;11.852;2023-08-21T23:28:23;26.20;45.80
42147;DHT22;27815;43.410;11.852;2023-08-21T23:32:26;26.20;45.70
42147;DHT22;27815;43.410;11.852;2023-08-21T23:36:29;26.20;45.80
42147;DHT22;27815;43.410;11.852;2023-08-21T23:40:32;26.10;45.80
42147;DHT22;27815;43.410;11.852;2023-08-21T23:44:35;26.10;45.90
42147;DHT22;27815;43.410;11.852;2023-08-21T23:48:38;26.10;46.00
42147;DHT22;27815;43.410;11.852;2023-08-21T23:52:41;26.00;46.00
42147;DHT22;27815;43.410;11.852;2023-08-21T23:56:44;26.00;46.00
